Time;durP1;ratioP1;P1;durP2;ratioP2;P2;SDS_P1;SDS_P2;PMS_P1;PMS_P2;Temp;Humidity;BMP_temperature;BMP_pressure;BME280_temperature;BME280_humidity;BME280_pressure;Samples;Min_cycle;Max_cycle;Signal;HPM_P1;HPM_P2
2023/05/03 00:00:15;;;;;;;0.47;0.47;;;;;;;6.07;75.15;101153.06;5063655;28;20080;-77
2023/05/03 00:02:43;;;;;;;0.40;0.40;;;;;;;6.07;75.15;101163.38;5044025;28;20065;-74
2023/05/03 00:05:11;;;;;;;0.40;0.40;;;;;;;6.05;75.01;101156.44;5044144;28;20064;-75
2023/05/03 00:07:36;;;;;;;0.40;0.40;;;;;;;6.02;74.94;101153.78;5045661;28;20044;-76
2023/05/03 00:10:03;;;;;;;0.50;0.50;;;;;;;6.05;74.61;101161.59;5045556;28;20052;-75
2023/05/03 00:12:28;;;;;;;0.50;0.50;;;;;;;6.06;74.58;101160.75;5044057;28;20036;-74
2023/05/03 00:14:53;;;;;;;0.47;0.47;;;;;;;6.07;74.42;101163.38;5043860;28;20033;-76
2023/05/03 00:17:19;;;;;;;0.40;0.40;;;;;;;6.02;74.31;101153.78;5044401;28;20021;-76
2023/05/03 00:19:44;;;;;;;0.50;0.50;;;;;;;6.02;74.36;101166.66;5045225;28;20026;-75
2023/05/03 00:22:11;;;;;;;0.40;0.40;;;;;;;5.98;74.27;101169.97;5045438;28;20029;-75
2023/05/03 00:24:36;;;;;;;0.40;0.40;;;;;;;5.95;74.10;101169.09;5043573;28;20100;-75
2023/05/03 00:27:03;;;;;;;0.50;0.50;;;;;;;5.90;74.30;101178.44;5045069;28;20025;-76
2023/05/03 00:29:28;;;;;;;0.40;0.40;;;;;;;5.86;74.61;101178.31;5045224;28;20030;-75
2023/05/03 00:31:54;;;;;;;0.50;0.50;;;;;;;5.80;74.61;101171.28;5043485;28;20095;-75
2023/05/03 00:34:19;;;;;;;0.40;0.40;;;;;;;5.79;74.44;101185.03;5043925;28;20052;-75
2023/05/03 00:36:45;;;;;;;0.40;0.40;;;;;;;5.72;74.29;101178.84;5042499;28;20493;-76
2023/05/03 00:39:11;;;;;;;0.40;0.40;;;;;;;5.67;73.97;101170.16;5043753;28;20025;-74
2023/05/03 00:41:38;;;;;;;0.50;0.50;;;;;;;5.62;73.78;101170.03;5042668;28;20512;-75
2023/05/03 00:44:03;;;;;;;0.40;0.40;;;;;;;5.61;73.88;101180.31;5043592;28;20548;-75
2023/05/03 00:46:29;;;;;;;0.50;0.50;;;;;;;5.58;73.18;101175.94;5043495;28;20026;-76
2023/05/03 00:48:55;;;;;;;0.50;0.50;;;;;;;5.52;74.02;101180.94;5043488;28;20033;-76
2023/05/03 00:51:21;;;;;;;0.43;0.43;;;;;;;5.50;73.96;101174.88;5044893;28;20026;-76
2023/05/03 00:53:46;;;;;;;0.40;0.40;;;;;;;5.49;73.87;101183.44;5042929;28;20039;-75
2023/05/03 00:56:19;;;;;;;0.40;0.40;;;;;;;5.42;74.26;101184.97;5044670;28;20175;-74
2023/05/03 00:58:45;;;;;;;0.40;0.40;;;;;;;5.42;74.23;101185.88;5044847;28;20036;-74
2023/05/03 01:01:10;;;;;;;0.40;0.40;;;;;;;5.42;73.71;101183.28;5043182;28;20017;-75
2023/05/03 01:03:39;;;;;;;0.50;0.50;;;;;;;5.37;74.43;101184.88;5043533;28;20049;-76
2023/05/03 01:06:15;;;;;;;0.40;0.40;;;;;;;5.42;74.54;101183.28;5043483;28;20112;-76
2023/05/03 01:08:49;;;;;;;0.40;0.40;;;;;;;5.39;75.27;101188.34;5043808;28;20028;-76
2023/05/03 01:11:47;;;;;;;0.40;0.40;;;;;;;5.38;76.97;101196.94;5044559;28;20027;-74
2023/05/03 01:14:26;;;;;;;0.50;0.50;;;;;;;5.36;77.78;101198.59;4982853;28;20066;-75
2023/05/03 01:16:59;;;;;;;0.50;0.50;;;;;;;5.31;78.08;101198.47;4982994;28;20573;-75
2023/05/03 01:19:34;;;;;;;0.40;0.40;;;;;;;5.36;79.16;101203.72;4964406;28;20042;-76
2023/05/03 01:22:07;;;;;;;1.63;1.52;;;;;;;5.39;79.84;101198.66;4982902;28;20515;-76
2023/05/03 01:24:36;;;;;;;0.40;0.40;;;;;;;5.41;80.80;101199.59;4982795;28;20038;-75
2023/05/03 01:27:01;;;;;;;0.50;0.50;;;;;;;5.39;80.81;101175.47;4982726;28;20087;-75
2023/05/03 01:29:27;;;;;;;0.50;0.50;;;;;;;5.54;81.95;101202.47;4966729;28;20058;-77
2023/05/03 01:31:59;;;;;;;0.50;0.50;;;;;;;5.53;82.61;101200.69;4981400;28;20049;-75
2023/05/03 01:34:32;;;;;;;0.50;0.50;;;;;;;5.58;82.77;101202.56;4965571;28;20026;-76
2023/05/03 01:36:58;;;;;;;0.40;0.40;;;;;;;5.63;81.77;101204.38;4981820;28;20317;-76
2023/05/03 01:39:36;;;;;;;0.50;0.50;;;;;;;5.62;81.73;101202.66;4982066;28;20053;-75
2023/05/03 01:42:03;;;;;;;0.40;0.40;;;;;;;5.62;81.39;101211.25;4982709;28;20027;-76
2023/05/03 01:44:29;;;;;;;0.40;0.40;;;;;;;5.55;81.17;101210.22;4982726;28;20455;-75
2023/05/03 01:46:56;;;;;;;0.40;0.40;;;;;;;5.55;80.91;101209.34;4982562;28;20077;-75
2023/05/03 01:49:21;;;;;;;0.40;0.40;;;;;;;5.51;80.73;101210.13;4982741;28;20090;-75
2023/05/03 01:51:47;;;;;;;0.40;0.40;;;;;;;5.51;80.80;101218.69;5042719;28;20055;-73
2023/05/03 01:54:12;;;;;;;0.40;0.40;;;;;;;5.42;80.85;101209.03;5042617;28;20330;-73
2023/05/03 01:56:38;;;;;;;0.40;0.40;;;;;;;5.32;80.91;101204.47;5042724;28;20035;-75
2023/05/03 01:59:03;;;;;;;0.40;0.40;;;;;;;5.40;80.29;101215.00;5042769;28;20101;-75
2023/05/03 02:01:29;;;;;;;0.40;0.40;;;;;;;5.29;80.36;101210.41;5043129;28;20044;-75
2023/05/03 02:03:54;;;;;;;0.47;0.47;;;;;;;5.32;81.20;101225.94;5062806;28;20041;-76
2023/05/03 02:06:20;;;;;;;0.40;0.40;;;;;;;5.35;81.81;101222.59;5063463;28;20025;-75
2023/05/03 02:08:46;;;;;;;0.50;0.50;;;;;;;5.33;82.91;101224.25;5045486;28;20036;-75
2023/05/03 02:11:11;;;;;;;0.40;0.40;;;;;;;5.38;82.95;101229.53;5045780;28;20033;-75
2023/05/03 02:13:37;;;;;;;0.40;0.40;;;;;;;5.39;83.09;101227.00;5062298;28;20025;-74
2023/05/03 02:16:03;;;;;;;0.40;0.40;;;;;;;5.38;83.58;101220.09;5045479;28;20028;-75
2023/05/03 02:18:32;;;;;;;0.50;0.50;;;;;;;5.37;83.76;101225.22;5063378;28;20028;-76
2023/05/03 02:20:58;;;;;;;0.40;0.40;;;;;;;5.31;83.91;101218.19;5043442;28;20032;-75
2023/05/03 02:23:23;;;;;;;0.50;0.50;;;;;;;5.35;82.93;101221.72;5062510;28;20032;-75
2023/05/03 02:25:50;;;;;;;0.45;0.45;;;;;;;5.40;83.65;101240.75;5043515;28;20080;-75
2023/05/03 02:28:15;;;;;;;0.40;0.40;;;;;;;5.37;83.59;101236.38;5063439;28;20048;-75
2023/05/03 02:30:42;;;;;;;1.15;1.15;;;;;;;5.34;83.65;101238.88;5063647;28;20017;-73
2023/05/03 02:33:07;;;;;;;0.50;0.50;;;;;;;5.31;83.42;101241.34;5045406;28;20052;-74
2023/05/03 02:35:33;;;;;;;0.40;0.40;;;;;;;5.33;83.88;101242.28;5044080;28;20024;-77
2023/05/03 02:37:58;;;;;;;0.43;0.43;;;;;;;5.29;83.85;101240.44;5061612;28;20021;-75
2023/05/03 02:40:24;;;;;;;0.40;0.40;;;;;;;5.29;84.12;101243.00;5045320;28;20044;-75
2023/05/03 02:42:50;;;;;;;0.43;0.43;;;;;;;5.24;83.99;101244.59;5061999;28;20036;-74
2023/05/03 02:45:16;;;;;;;0.50;0.50;;;;;;;5.21;84.13;101251.41;5063136;28;20032;-74
2023/05/03 02:47:41;;;;;;;0.50;0.50;;;;;;;5.13;84.82;101240.03;5047098;28;20047;-75
2023/05/03 02:50:07;;;;;;;1.77;1.67;;;;;;;5.21;84.86;101259.13;5048943;28;20023;-76
2023/05/03 02:52:32;;;;;;;0.40;0.40;;;;;;;5.25;84.83;101259.22;5064560;28;20024;-74
2023/05/03 02:54:58;;;;;;;0.50;0.50;;;;;;;5.24;85.45;101258.34;5065758;28;20029;-75
2023/05/03 02:57:23;;;;;;;0.50;0.50;;;;;;;5.18;85.57;101258.16;5066633;28;20028;-74
2023/05/03 02:59:49;;;;;;;0.40;0.40;;;;;;;5.24;84.52;101272.94;5065363;28;20029;-74
2023/05/03 03:02:14;;;;;;;0.50;0.50;;;;;;;5.14;84.11;101264.97;5066532;28;20067;-74
2023/05/03 03:04:39;;;;;;;0.50;0.50;;;;;;;5.14;84.34;101264.06;5048388;28;20370;-73
2023/05/03 03:07:05;;;;;;;0.50;0.50;;;;;;;5.12;84.93;101265.72;5066565;28;20033;-74
2023/05/03 03:09:30;;;;;;;0.40;0.40;;;;;;;5.07;84.98;101269.06;5065462;28;20435;-73
2023/05/03 03:11:56;;;;;;;0.40;0.40;;;;;;;5.10;84.67;101275.13;5066396;28;20028;-73
2023/05/03 03:14:21;;;;;;;0.40;0.40;;;;;;;5.10;84.64;101275.97;5065143;28;20066;-74
2023/05/03 03:16:49;;;;;;;0.50;0.50;;;;;;;5.06;84.89;101272.44;5066390;28;20025;-74
2023/05/03 03:19:15;;;;;;;0.40;0.40;;;;;;;5.05;84.97;101272.38;5066165;28;20021;-74
2023/05/03 03:21:40;;;;;;;0.40;0.40;;;;;;;5.04;84.50;101268.09;5066650;28;20036;-74
2023/05/03 03:24:06;;;;;;;0.50;0.50;;;;;;;5.05;85.00;101274.97;5066304;28;20051;-73
2023/05/03 03:26:31;;;;;;;0.40;0.40;;;;;;;5.13;84.30;101288.94;5065903;28;20044;-75
2023/05/03 03:28:56;;;;;;;0.40;0.40;;;;;;;5.14;84.70;101284.66;5065142;28;20557;-74
2023/05/03 03:31:24;;;;;;;0.50;0.50;;;;;;;5.19;85.41;101281.38;5065634;28;20021;-74
2023/05/03 03:33:50;;;;;;;0.45;0.45;;;;;;;5.36;84.26;101282.69;5066111;28;20020;-73
2023/05/03 03:36:15;;;;;;;0.50;0.50;;;;;;;5.53;85.06;101285.69;5065497;28;20039;-74
2023/05/03 03:38:40;;;;;;;0.40;0.40;;;;;;;5.77;84.48;101292.34;5065112;28;20041;-75
2023/05/03 03:41:07;;;;;;;0.40;0.40;;;;;;;5.99;85.24;101303.22;5063819;28;20074;-73
2023/05/03 03:43:32;;;;;;;0.50;0.50;;;;;;;6.25;85.83;101297.81;5065904;28;20021;-73
2023/05/03 03:45:58;;;;;;;0.40;0.40;;;;;;;6.54;86.20;101292.47;5048040;28;20045;-75
2023/05/03 03:48:23;;;;;;;0.40;0.40;;;;;;;6.89;87.14;101297.56;5047757;28;20056;-75
2023/05/03 03:50:49;;;;;;;0.40;0.40;;;;;;;7.24;86.76;101287.91;5065486;28;20441;-73
2023/05/03 03:53:15;;;;;;;0.40;0.40;;;;;;;7.49;86.86;101291.81;5064761;28;20104;-74
2023/05/03 03:55:40;;;;;;;1.15;1.15;;;;;;;7.92;86.64;101302.06;5065079;28;20028;-74
2023/05/03 03:58:06;;;;;;;0.40;0.40;;;;;;;8.24;87.20;101293.09;5045863;28;20071;-74
2023/05/03 04:00:33;;;;;;;0.40;0.40;;;;;;;8.75;87.27;101292.13;5065470;28;20016;-73
2023/05/03 04:02:58;;;;;;;0.40;0.40;;;;;;;9.20;87.50;101297.00;5047513;28;20092;-74
2023/05/03 04:05:24;;;;;;;0.40;0.40;;;;;;;9.73;88.00;101301.00;5065221;28;20102;-73
2023/05/03 04:07:49;;;;;;;0.40;0.40;;;;;;;10.22;87.69;101294.50;5047569;28;20025;-74
2023/05/03 04:10:15;;;;;;;0.40;0.40;;;;;;;10.66;87.27;101298.28;5065546;28;20216;-74
2023/05/03 04:12:40;;;;;;;0.32;0.32;;;;;;;11.15;87.17;101306.28;5061754;28;20021;-73
2023/05/03 04:15:06;;;;;;;0.30;0.30;;;;;;;11.70;87.44;101296.00;5047269;28;20025;-73
2023/05/03 04:17:33;;;;;;;0.30;0.30;;;;;;;12.29;86.72;101306.47;5065147;28;20027;-74
2023/05/03 04:20:00;;;;;;;0.45;0.45;;;;;;;12.81;85.47;101299.38;5064938;28;20016;-74
2023/05/03 04:22:26;;;;;;;0.30;0.30;;;;;;;13.30;84.33;101301.78;5047184;28;20048;-72
2023/05/03 04:24:53;;;;;;;0.30;0.30;;;;;;;13.79;81.16;101300.66;5047391;28;20206;-75
2023/05/03 04:27:18;;;;;;;0.30;0.30;;;;;;;14.41;81.42;101301.00;5065046;28;20040;-74
2023/05/03 04:29:44;;;;;;;0.30;0.30;;;;;;;15.00;78.91;101302.97;5065179;28;20041;-74
2023/05/03 04:32:10;;;;;;;0.30;0.30;;;;;;;15.69;79.09;101297.66;5065428;28;20043;-73
2023/05/03 04:34:35;;;;;;;0.20;0.20;;;;;;;16.31;76.37;101301.00;5046763;28;20029;-74
2023/05/03 04:37:00;;;;;;;0.20;0.20;;;;;;;16.81;69.71;101304.44;5047020;28;20017;-72
2023/05/03 04:39:26;;;;;;;0.28;0.28;;;;;;;17.38;70.54;101306.81;5064794;28;20107;-74
2023/05/03 04:41:51;;;;;;;0.20;0.20;;;;;;;17.61;67.34;101314.13;5064714;28;20021;-74
2023/05/03 04:44:17;;;;;;;0.30;0.30;;;;;;;17.76;63.65;101318.19;5063480;28;20033;-73
2023/05/03 04:46:43;;;;;;;0.25;0.25;;;;;;;18.08;63.79;101308.59;5046608;28;20025;-73
2023/05/03 04:49:08;;;;;;;0.20;0.20;;;;;;;18.44;63.03;101314.75;5063418;28;20024;-75
2023/05/03 04:51:33;;;;;;;0.30;0.30;;;;;;;18.88;59.13;101317.03;5046540;28;20025;-75
2023/05/03 04:53:59;;;;;;;0.20;0.20;;;;;;;19.16;59.09;101329.41;5064617;28;20140;-73
2023/05/03 04:56:25;;;;;;;0.20;0.20;;;;;;;19.44;58.07;101320.66;5064513;28;20021;-73
2023/05/03 04:58:54;;;;;;;0.20;0.20;;;;;;;20.29;60.97;101336.41;5064569;28;20396;-75
2023/05/03 05:01:25;;;;;;;37.25;2.70;;;;;;;20.60;61.22;101335.34;5064596;28;20048;-72
2023/05/03 05:03:51;;;;;;;0.20;0.20;;;;;;;20.75;61.56;101327.78;5046477;28;20072;-70
2023/05/03 05:06:17;;;;;;;0.10;0.10;;;;;;;20.84;59.85;101338.00;5064077;28;20266;-70
2023/05/03 05:08:42;;;;;;;0.20;0.20;;;;;;;20.78;56.72;101339.06;5064181;28;20016;-70
2023/05/03 05:11:07;;;;;;;0.45;0.45;;;;;;;20.43;52.60;101349.13;5063872;28;20376;-70
2023/05/03 05:13:33;;;;;;;0.28;0.28;;;;;;;20.14;50.16;101353.63;5064286;28;20318;-70
2023/05/03 05:15:58;;;;;;;0.20;0.20;;;;;;;20.37;49.11;101355.47;5064175;28;20025;-70
2023/05/03 05:18:24;;;;;;;0.20;0.20;;;;;;;20.62;49.36;101346.72;5063185;28;20017;-74
2023/05/03 05:20:49;;;;;;;0.20;0.20;;;;;;;20.68;47.21;101351.75;5063605;28;20033;-73
2023/05/03 05:23:15;;;;;;;0.20;0.20;;;;;;;21.27;46.41;101361.94;5064044;28;20450;-72
2023/05/03 05:25:40;;;;;;;0.30;0.30;;;;;;;21.94;47.91;101360.25;5045990;28;20074;-73
2023/05/03 05:28:06;;;;;;;0.20;0.20;;;;;;;22.29;47.47;101365.84;5063987;28;20380;-72
2023/05/03 05:30:31;;;;;;;0.20;0.20;;;;;;;22.47;46.19;101374.78;5046458;28;20021;-72
2023/05/03 05:32:57;;;;;;;0.20;0.20;;;;;;;22.54;44.09;101381.50;5045664;28;20024;-73
2023/05/03 05:35:22;;;;;;;0.20;0.20;;;;;;;22.62;42.88;101370.63;5063417;28;20021;-74
2023/05/03 05:37:48;;;;;;;0.20;0.20;;;;;;;22.96;43.91;101364.75;5064038;28;20017;-73
2023/05/03 05:40:13;;;;;;;0.15;0.15;;;;;;;22.69;40.33;101376.50;5064151;28;20076;-72
2023/05/03 05:42:39;;;;;;;1.67;1.58;;;;;;;22.36;39.80;101383.19;5064109;28;20080;-72
2023/05/03 05:45:06;;;;;;;0.20;0.20;;;;;;;22.36;39.55;101382.31;5064053;28;20025;-73
2023/05/03 05:47:32;;;;;;;0.10;0.10;;;;;;;22.57;40.40;101382.31;5063962;28;20381;-73
2023/05/03 05:49:57;;;;;;;0.10;0.10;;;;;;;22.57;38.81;101385.84;5063935;28;20032;-71
2023/05/03 05:52:22;;;;;;;0.10;0.10;;;;;;;22.85;38.32;101381.13;5046201;28;20028;-72
2023/05/03 05:54:48;;;;;;;0.10;0.10;;;;;;;23.60;39.64;101385.66;5044282;28;20017;-72
2023/05/03 05:57:13;;;;;;;0.10;0.10;;;;;;;23.47;37.38;101382.72;5044273;28;20021;-72
2023/05/03 05:59:39;;;;;;;0.75;0.75;;;;;;;23.55;38.21;101393.00;5063864;28;20060;-72
2023/05/03 06:02:15;;;;;;;0.20;0.20;;;;;;;23.49;36.50;101395.00;5063537;28;20068;-72
2023/05/03 06:04:40;;;;;;;0.10;0.10;;;;;;;23.46;36.86;101403.09;5045560;28;20105;-72
2023/05/03 06:07:06;;;;;;;0.10;0.10;;;;;;;23.50;37.09;101396.72;5063228;28;20053;-73
2023/05/03 06:09:31;;;;;;;0.10;0.10;;;;;;;23.62;37.31;101405.88;5045601;28;20056;-73
2023/05/03 06:11:56;;;;;;;0.20;0.20;;;;;;;23.60;36.30;101413.03;5063781;28;20105;-73
2023/05/03 06:14:22;;;;;;;0.20;0.20;;;;;;;23.26;34.94;101410.16;5063844;28;20025;-73
2023/05/03 06:16:47;;;;;;;0.10;0.10;;;;;;;22.98;34.99;101415.84;5063680;28;20023;-73
2023/05/03 06:19:13;;;;;;;0.15;0.15;;;;;;;23.26;34.70;101407.50;5045716;28;20028;-73
2023/05/03 06:21:38;;;;;;;0.20;0.20;;;;;;;23.40;33.97;101419.28;5066095;28;20077;-73
2023/05/03 06:24:04;;;;;;;0.10;0.10;;;;;;;23.52;33.59;101416.06;5067568;28;20017;-73
2023/05/03 06:26:29;;;;;;;0.10;0.10;;;;;;;23.54;33.38;101408.03;5067441;28;20029;-72
2023/05/03 06:28:55;;;;;;;0.30;0.30;;;;;;;23.62;32.63;101421.78;5067155;28;20017;-72
2023/05/03 06:31:20;;;;;;;0.10;0.10;;;;;;;23.64;32.39;101424.34;5066312;28;20016;-73
2023/05/03 06:33:45;;;;;;;1.13;1.00;;;;;;;23.77;31.58;101420.16;5066011;28;20096;-73
2023/05/03 06:36:11;;;;;;;0.20;0.20;;;;;;;23.64;31.01;101419.91;5065914;28;20021;-72
2023/05/03 06:38:37;;;;;;;0.20;0.20;;;;;;;23.66;31.10;101419.81;5048531;28;20028;-72
2023/05/03 06:41:02;;;;;;;0.40;0.40;;;;;;;23.39;29.78;101422.84;5049521;28;20050;-72
2023/05/03 06:43:28;;;;;;;0.20;0.20;;;;;;;23.10;30.77;101419.75;5049346;28;20110;-74
2023/05/03 06:45:53;;;;;;;0.10;0.10;;;;;;;23.45;31.65;101424.38;5067220;28;20100;-73
2023/05/03 06:48:20;;;;;;;0.20;0.20;;;;;;;23.60;30.99;101426.28;5067180;28;20021;-73
2023/05/03 06:50:45;;;;;;;0.20;0.20;;;;;;;23.68;30.45;101419.75;5066839;28;20028;-72
2023/05/03 06:53:11;;;;;;;0.10;0.10;;;;;;;23.67;30.77;101418.91;5067381;28;20025;-72
2023/05/03 06:55:36;;;;;;;0.20;0.20;;;;;;;23.51;30.07;101429.38;5066809;28;20155;-72
2023/05/03 06:58:02;;;;;;;0.30;0.30;;;;;;;23.49;29.66;101437.41;5067198;28;20017;-72
2023/05/03 07:00:27;;;;;;;0.68;0.68;;;;;;;23.55;29.92;101435.41;5067021;28;20028;-71
2023/05/03 07:02:53;;;;;;;0.20;0.20;;;;;;;23.64;29.11;101432.31;5066724;28;20120;-71
2023/05/03 07:05:18;;;;;;;0.75;0.75;;;;;;;23.90;29.72;101440.78;5066744;28;20404;-72
2023/05/03 07:07:45;;;;;;;0.45;0.40;;;;;;;23.81;30.03;101446.53;5066926;28;20461;-71
2023/05/03 07:10:10;;;;;;;0.10;0.10;;;;;;;23.75;29.58;101437.09;5048858;28;20473;-71
2023/05/03 07:12:35;;;;;;;0.10;0.10;;;;;;;24.06;29.52;101445.34;5066504;28;20087;-72
2023/05/03 07:15:01;;;;;;;0.20;0.20;;;;;;;24.02;28.16;101448.16;5066657;28;20029;-71
2023/05/03 07:17:26;;;;;;;0.13;0.13;;;;;;;23.81;29.13;101441.22;5066541;28;20025;-72
2023/05/03 07:19:53;;;;;;;0.22;0.22;;;;;;;23.73;29.29;101434.50;5048408;28;20028;-73
2023/05/03 07:22:23;;;;;;;0.20;0.20;;;;;;;23.66;28.40;101443.69;5048697;28;20097;-71
2023/05/03 07:24:50;;;;;;;1.75;1.65;;;;;;;23.75;27.68;101442.41;5066526;28;20021;-72
2023/05/03 07:27:15;;;;;;;0.20;0.20;;;;;;;23.93;28.52;101445.09;5065772;28;20049;-73
2023/05/03 07:29:41;;;;;;;0.15;0.15;;;;;;;24.04;27.63;101458.69;5065425;28;20067;-71
2023/05/03 07:32:07;;;;;;;0.10;0.10;;;;;;;23.93;27.57;101451.22;5066021;28;20070;-71
2023/05/03 07:34:32;;;;;;;0.20;0.20;;;;;;;23.99;26.72;101453.59;5065932;28;20021;-72
2023/05/03 07:36:58;;;;;;;0.20;0.20;;;;;;;23.84;25.64;101457.84;5066152;28;20021;-73
2023/05/03 07:39:23;;;;;;;0.10;0.10;;;;;;;23.86;25.79;101449.81;5066090;28;20427;-73
2023/05/03 07:41:49;;;;;;;0.13;0.13;;;;;;;23.98;25.92;101446.56;5066209;28;20029;-72
2023/05/03 07:44:14;;;;;;;0.20;0.20;;;;;;;24.13;26.77;101444.97;5064832;28;20108;-71
2023/05/03 07:46:40;;;;;;;0.20;0.20;;;;;;;24.30;25.64;101451.25;5065665;28;20071;-72
2023/05/03 07:49:05;;;;;;;0.28;0.28;;;;;;;24.30;25.70;101453.91;5065577;28;20025;-73
2023/05/03 07:51:38;;;;;;;0.20;0.20;;;;;;;24.58;25.79;101451.66;5066113;28;20031;-72
2023/05/03 07:54:04;;;;;;;0.38;0.38;;;;;;;24.80;25.50;101448.75;5065789;28;20029;-72
2023/05/03 07:56:30;;;;;;;3.22;2.92;;;;;;;24.67;23.70;101456.47;5065689;28;20025;-72
2023/05/03 07:58:56;;;;;;;0.17;0.17;;;;;;;24.65;24.25;101453.03;5065767;28;20032;-72
2023/05/03 08:01:22;;;;;;;0.30;0.30;;;;;;;24.56;23.51;101454.38;5065994;28;20028;-71
2023/05/03 08:03:50;;;;;;;0.20;0.20;;;;;;;24.46;23.89;101455.78;5065710;28;20360;-70
2023/05/03 08:06:17;;;;;;;12.30;2.85;;;;;;;24.49;23.44;101458.28;5065437;28;20056;-73
2023/05/03 08:08:42;;;;;;;0.10;0.10;;;;;;;24.47;23.81;101460.16;5065822;28;20025;-72
2023/05/03 08:11:08;;;;;;;0.20;0.20;;;;;;;24.52;23.81;101458.16;5065723;28;20021;-72
2023/05/03 08:13:33;;;;;;;0.15;0.15;;;;;;;24.40;22.03;101459.59;5065630;28;20029;-72
2023/05/03 08:15:59;;;;;;;0.10;0.10;;;;;;;24.27;22.49;101464.66;5065423;28;20033;-73
2023/05/03 08:18:26;;;;;;;0.10;0.10;;;;;;;24.14;22.68;101467.03;5065580;28;20027;-73
2023/05/03 08:20:51;;;;;;;0.20;0.20;;;;;;;24.35;21.49;101470.47;5065211;28;20029;-72
2023/05/03 08:23:17;;;;;;;0.20;0.20;;;;;;;24.36;21.77;101472.16;5065513;28;20186;-71
2023/05/03 08:25:44;;;;;;;0.20;0.20;;;;;;;24.45;21.99;101473.50;5065385;28;20028;-72
2023/05/03 08:28:09;;;;;;;0.20;0.20;;;;;;;24.78;22.41;101476.31;5065463;28;20113;-72
2023/05/03 08:30:35;;;;;;;0.20;0.20;;;;;;;25.36;22.37;101471.53;5065417;28;20082;-71
2023/05/03 08:33:01;;;;;;;0.20;0.20;;;;;;;25.70;22.36;101474.16;5065275;28;20017;-71
2023/05/03 08:35:27;;;;;;;0.20;0.20;;;;;;;25.88;22.50;101479.38;5046916;28;20036;-71
2023/05/03 08:37:52;;;;;;;0.10;0.10;;;;;;;26.11;22.66;101478.06;5065128;28;20021;-71
2023/05/03 08:40:21;;;;;;;0.10;0.10;;;;;;;26.18;21.30;101476.75;5065199;28;20419;-72
2023/05/03 08:42:48;;;;;;;0.10;0.10;;;;;;;26.13;20.84;101480.63;5065460;28;20028;-71
2023/05/03 08:45:15;;;;;;;0.20;0.20;;;;;;;26.14;20.88;101477.00;5064064;28;20021;-72
2023/05/03 08:47:44;;;;;;;0.10;0.10;;;;;;;25.99;20.50;101477.81;5064855;28;20018;-72
2023/05/03 08:50:14;;;;;;;0.10;0.10;;;;;;;26.01;20.80;101476.88;5064845;28;20021;-73
2023/05/03 08:52:41;;;;;;;0.10;0.10;;;;;;;26.08;21.08;101476.44;5064859;28;20051;-71
2023/05/03 08:55:08;;;;;;;0.13;0.13;;;;;;;26.02;20.03;101474.13;5064783;28;20033;-72
2023/05/03 08:57:34;;;;;;;0.10;0.10;;;;;;;25.63;19.45;101473.63;5064466;28;20024;-73
2023/05/03 09:00:00;;;;;;;0.10;0.10;;;;;;;25.19;19.97;101488.38;5064712;28;20021;-73
2023/05/03 09:02:28;;;;;;;0.20;0.20;;;;;;;24.96;20.19;101488.66;5064697;28;20118;-70
2023/05/03 09:04:55;;;;;;;0.20;0.20;;;;;;;24.81;19.55;101497.41;5046573;28;20025;-72
2023/05/03 09:07:21;;;;;;;0.20;0.20;;;;;;;24.37;20.40;101499.56;5064528;28;20051;-71
2023/05/03 09:09:46;;;;;;;0.20;0.20;;;;;;;24.34;20.06;101497.06;5064631;28;20103;-70
2023/05/03 09:12:33;;;;;;;0.20;0.20;;;;;;;24.15;20.16;101495.31;5064491;28;20029;-70
2023/05/03 09:14:59;;;;;;;0.10;0.10;;;;;;;23.86;20.66;101503.72;5064883;28;20051;-72
2023/05/03 09:17:25;;;;;;;0.10;0.10;;;;;;;23.92;21.16;101497.25;5062913;28;20025;-71
2023/05/03 09:19:52;;;;;;;0.20;0.20;;;;;;;24.44;21.41;101503.63;5064121;28;20051;-71
2023/05/03 09:22:18;;;;;;;0.20;0.20;;;;;;;24.59;20.65;101509.09;5064512;28;20028;-70
2023/05/03 09:24:58;;;;;;;0.75;0.63;;;;;;;24.81;20.79;101510.69;5064377;28;20044;-71
2023/05/03 09:27:24;;;;;;;0.15;0.15;;;;;;;24.80;20.77;101496.53;5064339;28;20021;-70
2023/05/03 09:29:51;;;;;;;0.17;0.17;;;;;;;25.01;21.03;101501.69;5064619;28;20012;-71
2023/05/03 09:32:18;;;;;;;0.10;0.10;;;;;;;25.09;21.26;101502.16;5064223;28;20477;-71
2023/05/03 09:34:44;;;;;;;0.10;0.10;;;;;;;25.33;21.73;101506.22;5064096;28;20483;-72
2023/05/03 09:37:12;;;;;;;0.10;0.10;;;;;;;25.85;21.00;101510.53;5064060;28;20036;-71
2023/05/03 09:39:39;;;;;;;0.30;0.30;;;;;;;26.10;21.31;101506.47;5045887;28;20199;-71
2023/05/03 09:42:11;;;;;;;0.10;0.10;;;;;;;26.14;19.94;101508.94;5064195;28;20032;-70
2023/05/03 09:44:53;;;;;;;0.10;0.10;;;;;;;25.87;20.14;101513.09;5064224;28;20096;-70
2023/05/03 09:47:18;;;;;;;0.10;0.10;;;;;;;25.94;20.51;101506.47;5045721;28;20028;-72
2023/05/03 09:49:44;;;;;;;0.10;0.10;;;;;;;26.14;20.44;101512.47;5064031;28;20029;-72
2023/05/03 09:52:10;;;;;;;0.10;0.10;;;;;;;26.48;20.12;101510.56;5045216;28;20058;-72
2023/05/03 09:54:37;;;;;;;0.10;0.10;;;;;;;26.52;19.49;101513.88;5064012;28;20084;-73
2023/05/03 09:57:05;;;;;;;0.13;0.13;;;;;;;26.18;19.35;101507.84;5051399;28;20104;-72
2023/05/03 09:59:32;;;;;;;0.10;0.10;;;;;;;25.52;19.20;101530.03;5070728;28;20049;-72
2023/05/03 10:02:00;;;;;;;0.10;0.10;;;;;;;24.98;20.45;101517.78;5070435;28;20056;-72
2023/05/03 10:04:27;;;;;;;0.10;0.10;;;;;;;24.98;19.84;101517.78;5070488;28;20104;-72
2023/05/03 10:07:03;;;;;;;0.10;0.10;;;;;;;24.54;20.42;101522.59;5070356;28;20059;-72
2023/05/03 10:09:39;;;;;;;0.10;0.10;;;;;;;24.61;21.41;101521.38;5070498;28;20017;-72
2023/05/03 10:12:07;;;;;;;0.10;0.10;;;;;;;24.76;20.67;101525.03;5070395;28;20075;-73
2023/05/03 10:14:33;;;;;;;0.20;0.20;;;;;;;24.90;20.71;101518.19;5070423;28;20087;-71
2023/05/03 10:17:07;;;;;;;0.30;0.30;;;;;;;24.96;20.80;101528.50;5052428;28;20059;-72
2023/05/03 10:19:34;;;;;;;0.20;0.20;;;;;;;25.08;20.77;101528.81;5052118;28;20029;-72
2023/05/03 10:22:10;;;;;;;0.20;0.20;;;;;;;24.81;20.67;101521.31;5070473;28;20017;-71
2023/05/03 10:24:57;;;;;;;0.10;0.10;;;;;;;24.64;21.13;101528.31;5070555;28;20045;-72
2023/05/03 10:27:23;;;;;;;0.10;0.10;;;;;;;24.87;21.59;101523.63;5052081;28;20376;-73
2023/05/03 10:29:50;;;;;;;0.10;0.10;;;;;;;24.69;20.77;101530.72;5052562;28;20474;-73
2023/05/03 10:32:41;;;;;;;0.10;0.10;;;;;;;24.54;20.61;101532.38;5052317;28;20028;-73
2023/05/03 10:35:15;;;;;;;0.20;0.20;;;;;;;24.94;19.74;101532.16;5052212;28;20109;-73
2023/05/03 10:37:41;;;;;;;0.10;0.10;;;;;;;24.74;19.42;101536.69;5070453;28;20084;-72
2023/05/03 10:40:09;;;;;;;0.20;0.20;;;;;;;24.41;20.39;101540.09;5068980;28;20028;-73
2023/05/03 10:42:39;;;;;;;0.20;0.20;;;;;;;24.24;20.35;101528.50;5069155;28;20025;-73
2023/05/03 10:45:07;;;;;;;0.10;0.10;;;;;;;24.33;20.67;101521.91;5070423;28;20032;-71
2023/05/03 10:47:33;;;;;;;0.10;0.10;;;;;;;24.32;20.54;101530.78;5070227;28;20485;-71
2023/05/03 10:50:14;;;;;;;0.10;0.10;;;;;;;24.22;20.33;101533.00;5052227;28;20105;-72
2023/05/03 10:52:39;;;;;;;0.20;0.20;;;;;;;24.08;20.39;101537.16;5070489;28;20029;-72
2023/05/03 10:55:08;;;;;;;0.20;0.20;;;;;;;23.75;20.22;101543.13;5070175;28;20031;-71
2023/05/03 10:57:36;;;;;;;0.10;0.10;;;;;;;23.71;20.20;101531.81;5070074;28;20080;-72
2023/05/03 11:00:07;;;;;;;0.20;0.20;;;;;;;22.99;20.11;101545.53;5068844;28;20021;-73
2023/05/03 11:02:36;;;;;;;0.20;0.20;;;;;;;21.85;21.12;101541.25;5070213;28;20044;-71
2023/05/03 11:05:07;;;;;;;0.20;0.20;;;;;;;21.02;22.55;101538.88;5070015;28;20044;-71
2023/05/03 11:07:33;;;;;;;0.30;0.30;;;;;;;20.58;22.90;101540.28;5067314;28;20052;-73
2023/05/03 11:09:59;;;;;;;0.17;0.17;;;;;;;19.91;23.06;101548.44;5065655;28;20400;-72
2023/05/03 11:12:24;;;;;;;0.20;0.20;;;;;;;19.63;23.77;101540.50;5066757;28;20032;-73
2023/05/03 11:14:50;;;;;;;0.20;0.20;;;;;;;19.25;24.08;101549.38;5066765;28;20048;-73
2023/05/03 11:17:15;;;;;;;0.20;0.20;;;;;;;18.93;24.45;101553.72;5065559;28;20067;-72
2023/05/03 11:19:43;;;;;;;0.20;0.20;;;;;;;18.45;24.60;101546.06;5066752;28;20487;-74
2023/05/03 11:22:08;;;;;;;0.20;0.20;;;;;;;18.13;24.83;101562.56;5066628;28;20441;-72
2023/05/03 11:24:34;;;;;;;0.20;0.20;;;;;;;17.57;25.18;101562.75;5066293;28;20025;-73
2023/05/03 11:27:00;;;;;;;0.20;0.20;;;;;;;17.01;25.78;101557.63;5065107;28;20029;-72